Time;durP1;ratioP1;P1;durP2;ratioP2;P2;SDS_P1;SDS_P2;PMS_P1;PMS_P2;Temp;Humidity;BMP_temperature;BMP_pressure;BME280_temperature;BME280_humidity;BME280_pressure;Samples;Min_cycle;Max_cycle;Signal;HPM_P1;HPM_P2
2021/10/01 00:00:10;;;;;;;3.20;1.70;;;8.60;99.90;;;9.64;100.00;98826.41;5087740;28;20488;-80
2021/10/01 00:02:38;;;;;;;2.97;1.70;;;8.60;99.90;;;9.52;100.00;98816.28;5087497;28;20459;-80
2021/10/01 00:05:09;;;;;;;4.40;2.17;;;8.50;99.90;;;9.42;100.00;98823.44;5087110;28;20473;-80
2021/10/01 00:07:37;;;;;;;3.23;1.73;;;8.40;99.90;;;9.38;100.00;98818.69;5075218;28;20541;-80
2021/10/01 00:10:07;;;;;;;5.63;1.90;;;8.50;99.90;;;9.39;100.00;98823.75;5087178;28;20454;-80
2021/10/01 00:12:36;;;;;;;3.07;1.83;;;8.50;99.90;;;9.28;100.00;98821.44;5088116;28;20489;-80
2021/10/01 00:15:08;;;;;;;2.27;1.80;;;8.30;99.90;;;9.16;100.00;98817.50;5088924;28;20455;-81
2021/10/01 00:17:37;;;;;;;2.70;1.97;;;8.10;99.90;;;9.19;100.00;98818.97;5082488;28;20560;-80
2021/10/01 00:20:08;;;;;;;2.80;1.90;;;8.20;99.90;;;9.14;100.00;98816.84;5086666;28;20741;-80
2021/10/01 00:22:36;;;;;;;3.00;2.00;;;8.20;99.90;;;9.16;100.00;98812.28;5087114;28;20463;-80
2021/10/01 00:25:05;;;;;;;3.20;1.90;;;8.20;99.90;;;9.15;100.00;98812.44;5087838;28;20521;-80
2021/10/01 00:27:34;;;;;;;2.90;1.90;;;8.20;99.90;;;9.16;100.00;98809.69;5082154;28;20510;-80
2021/10/01 00:30:04;;;;;;;3.70;1.73;;;8.20;99.90;;;9.08;100.00;98809.66;5087945;28;20459;-80
2021/10/01 00:32:34;;;;;;;1.93;1.40;;;8.00;99.90;;;9.05;100.00;98816.00;5083888;28;20468;-80
2021/10/01 00:35:02;;;;;;;5.47;2.30;;;8.10;99.90;;;9.09;100.00;98816.50;5087145;28;20470;-80
2021/10/01 00:37:31;;;;;;;2.70;1.60;;;8.10;99.90;;;8.92;100.00;98807.00;5085855;28;21020;-80
2021/10/01 00:40:00;;;;;;;2.40;1.50;;;7.90;99.90;;;8.85;100.00;98803.38;5086622;28;21234;-80
2021/10/01 00:42:28;;;;;;;2.60;1.53;;;7.80;99.90;;;8.81;100.00;98802.88;5086987;28;20504;-80
2021/10/01 00:44:57;;;;;;;3.63;1.80;;;7.70;99.90;;;8.76;100.00;98796.50;5087451;28;20814;-80
2021/10/01 00:47:25;;;;;;;3.33;1.57;;;7.70;99.90;;;8.83;100.00;98802.72;5083457;28;21108;-80
2021/10/01 00:49:55;;;;;;;3.00;1.63;;;7.80;99.90;;;8.71;100.00;98798.75;5085977;28;20462;-80
2021/10/01 00:52:24;;;;;;;15.43;1.87;;;7.70;99.90;;;8.72;100.00;98798.59;5084757;28;20450;-80
2021/10/01 00:54:53;;;;;;;3.20;1.90;;;7.60;99.90;;;8.79;100.00;98799.59;5085363;28;20466;-80
2021/10/01 00:57:22;;;;;;;1.83;1.37;;;7.80;99.90;;;8.83;100.00;98795.72;5082968;28;20523;-80
2021/10/01 00:59:50;;;;;;;2.50;1.83;;;7.80;99.90;;;8.79;100.00;98793.56;5086125;28;20923;-80
2021/10/01 01:02:19;;;;;;;2.20;1.47;;;7.90;99.90;;;8.61;100.00;98795.47;5086324;28;20455;-80
2021/10/01 01:04:49;;;;;;;2.70;1.73;;;7.60;99.90;;;8.55;100.00;98791.66;5088693;28;20959;-80
2021/10/01 01:07:34;;;;;;;3.53;1.50;;;7.50;99.90;;;8.63;100.00;98789.09;5088411;28;20440;-80
2021/10/01 01:10:14;;;;;;;5.30;1.53;;;7.70;99.90;;;8.63;100.00;98783.91;5080917;28;20971;-80
2021/10/01 01:12:55;;;;;;;2.20;1.50;;;7.60;99.90;;;8.57;100.00;98780.09;5085327;28;20512;-80
2021/10/01 01:15:30;;;;;;;3.87;1.73;;;7.60;99.90;;;8.38;100.00;98780.34;5085706;28;20463;-80
2021/10/01 01:18:04;;;;;;;2.17;1.40;;;7.40;99.90;;;8.36;100.00;98778.88;5084531;28;20482;-80
2021/10/01 01:20:41;;;;;;;2.30;1.80;;;7.30;99.90;;;8.37;100.00;98773.50;5085373;28;20956;-80
2021/10/01 01:24:07;;;;;;;2.73;1.60;;;7.30;99.90;;;8.37;100.00;98770.88;5084354;28;20455;-80
2021/10/01 01:27:06;;;;;;;2.70;1.53;;;7.30;99.90;;;8.35;100.00;98767.63;5065758;28;20474;-80
2021/10/01 01:29:45;;;;;;;2.27;1.70;;;7.30;99.90;;;8.30;100.00;98766.44;5082158;28;20536;-80
2021/10/01 01:32:21;;;;;;;2.40;1.37;;;7.20;99.90;;;8.26;100.00;98772.94;5079214;28;20509;-80
2021/10/01 01:34:54;;;;;;;3.83;1.80;;;7.20;99.90;;;8.30;100.00;98763.84;5084677;28;20464;-80
2021/10/01 01:37:33;;;;;;;2.80;1.80;;;7.30;99.90;;;8.26;100.00;98771.13;5082661;28;20843;-80
2021/10/01 01:40:05;;;;;;;2.20;1.57;;;7.20;99.90;;;8.25;100.00;98764.28;5088288;28;20858;-80
2021/10/01 01:42:35;;;;;;;3.67;1.73;;;7.20;99.90;;;8.16;100.00;98762.59;5085043;28;20463;-80
2021/10/01 01:45:06;;;;;;;3.57;2.00;;;7.10;99.90;;;8.15;100.00;98762.75;5085333;28;20548;-80
2021/10/01 01:47:39;;;;;;;2.10;1.53;;;7.10;99.90;;;8.19;100.00;98758.88;5086291;28;20459;-80
2021/10/01 01:50:10;;;;;;;3.70;1.57;;;7.10;99.90;;;8.19;100.00;98749.25;5078374;28;20463;-80
2021/10/01 01:52:42;;;;;;;3.07;1.60;;;7.20;99.90;;;8.05;100.00;98747.25;5090037;28;20459;-80
2021/10/01 01:55:13;;;;;;;3.17;1.50;;;7.00;99.90;;;8.02;100.00;98752.75;5090670;28;20451;-80
2021/10/01 01:57:47;;;;;;;2.00;1.50;;;6.90;99.90;;;8.12;100.00;98739.63;5087811;28;20495;-80
2021/10/01 02:00:16;;;;;;;4.90;1.60;;;7.10;99.90;;;8.08;100.00;98744.34;5088687;28;20483;-80
2021/10/01 02:02:50;;;;;;;3.83;1.77;;;7.10;99.90;;;8.12;100.00;98743.06;5086719;28;20550;-80
2021/10/01 02:05:20;;;;;;;1.87;1.47;;;7.20;99.90;;;8.08;100.00;98739.13;5091216;28;20959;-79
2021/10/01 02:07:51;;;;;;;4.43;1.73;;;7.10;99.90;;;8.05;100.00;98749.84;5086876;28;20513;-80
2021/10/01 02:10:22;;;;;;;2.87;1.80;;;7.00;99.90;;;8.04;100.00;98748.22;5089583;28;20944;-80
2021/10/01 02:12:55;;;;;;;2.33;1.30;;;7.00;99.90;;;8.02;100.00;98752.75;5090697;28;20746;-80
2021/10/01 02:15:29;;;;;;;4.50;1.90;;;7.00;99.90;;;7.80;100.00;98740.25;5087681;28;20508;-80
2021/10/01 02:18:02;;;;;;;5.03;2.07;;;6.70;99.90;;;7.77;100.00;98735.34;5087261;28;20494;-80
2021/10/01 02:20:34;;;;;;;7.33;1.60;;;6.70;99.90;;;7.83;100.00;98737.34;5090302;28;20868;-80
2021/10/01 02:23:04;;;;;;;2.90;1.63;;;6.90;99.90;;;7.91;100.00;98734.78;5091910;28;20483;-80
2021/10/01 02:28:33;;;;;;;1.93;1.50;;;7.10;99.90;;;7.99;100.00;98727.81;5087771;28;20529;-80
2021/10/01 02:31:07;;;;;;;5.07;2.00;;;7.10;99.90;;;7.90;100.00;98718.34;5090130;28;20454;-80
2021/10/01 02:33:44;;;;;;;4.00;1.90;;;7.00;99.90;;;7.64;100.00;98721.88;5085520;28;20475;-80
2021/10/01 02:36:13;;;;;;;3.37;2.57;;;6.60;99.90;;;7.64;100.00;98714.91;5087712;28;20512;-80
2021/10/01 02:38:42;;;;;;;1.97;1.77;;;6.60;99.90;;;7.69;100.00;98715.28;5084703;28;20851;-80
2021/10/01 02:41:11;;;;;;;6.33;1.83;;;6.60;99.90;;;7.61;100.00;98717.81;5090300;28;20803;-80
2021/10/01 02:43:39;;;;;;;1.50;1.30;;;6.60;99.90;;;7.52;100.00;98714.34;5089198;28;20517;-80
2021/10/01 02:46:08;;;;;;;3.27;1.60;;;6.50;99.90;;;7.57;100.00;98716.47;5085654;28;20978;-80
2021/10/01 02:48:38;;;;;;;2.70;1.80;;;6.50;99.90;;;7.52;100.00;98703.94;5086462;28;21358;-80
2021/10/01 02:51:16;;;;;;;3.23;1.53;;;6.40;99.90;;;7.52;100.00;98703.94;5089534;28;20631;-80
2021/10/01 02:53:55;;;;;;;1.73;1.33;;;6.40;99.90;;;7.57;100.00;98699.06;5086138;28;20455;-80
2021/10/01 02:56:30;;;;;;;1.60;1.47;;;6.50;99.90;;;7.59;100.00;98693.72;5089834;28;20492;-80
2021/10/01 02:59:03;;;;;;;2.67;1.37;;;6.50;99.90;;;7.49;100.00;98695.63;5090185;28;20490;-80
2021/10/01 03:01:33;;;;;;;7.70;1.60;;;6.40;99.90;;;7.39;100.00;98697.50;5088063;28;20488;-80
2021/10/01 03:04:11;;;;;;;3.13;1.57;;;6.30;99.90;;;7.37;100.00;98697.63;5091174;28;20451;-80
2021/10/01 03:06:46;;;;;;;3.83;1.40;;;6.30;99.90;;;7.35;100.00;98690.94;5085534;28;20448;-80
2021/10/01 03:09:17;;;;;;;10.00;1.57;;;6.30;99.90;;;7.22;100.00;98693.13;5089887;28;20455;-81
2021/10/01 03:11:46;;;;;;;4.83;1.70;;;6.10;99.90;;;7.21;100.00;98689.69;5090039;28;21001;-80
2021/10/01 03:14:18;;;;;;;2.13;1.70;;;6.20;99.90;;;7.31;100.00;98679.22;5088594;28;20956;-80
2021/10/01 03:16:49;;;;;;;8.33;1.70;;;6.30;99.90;;;7.35;100.00;98681.38;5083378;28;20479;-80
2021/10/01 03:19:22;;;;;;;2.47;1.50;;;6.50;99.90;;;7.41;100.00;98679.94;5084432;28;20527;-81
2021/10/01 03:21:54;;;;;;;1.67;1.47;;;6.50;99.90;;;7.43;100.00;98681.41;5088577;28;20601;-80
2021/10/01 03:24:24;;;;;;;2.87;1.53;;;6.50;99.90;;;7.41;100.00;98679.94;5086069;28;20850;-80
2021/10/01 03:26:53;;;;;;;1.53;1.40;;;6.50;99.90;;;7.27;100.00;98683.88;5083948;28;20463;-80
2021/10/01 03:29:22;;;;;;;3.90;1.40;;;6.30;99.90;;;7.24;100.00;98681.59;5088486;28;21221;-81
2021/10/01 03:31:52;;;;;;;3.23;1.30;;;6.20;99.90;;;7.22;100.00;98680.91;5085851;28;20828;-80
2021/10/01 03:34:22;;;;;;;1.40;1.20;;;6.10;99.90;;;7.21;100.00;98678.47;5083737;28;20503;-80
2021/10/01 03:36:51;;;;;;;5.90;1.60;;;6.10;99.90;;;7.05;100.00;98673.94;5085247;28;20462;-80
2021/10/01 03:39:22;;;;;;;3.90;1.70;;;5.90;99.90;;;7.03;100.00;98665.47;5081059;28;20459;-80
2021/10/01 03:41:51;;;;;;;5.43;1.70;;;5.90;99.90;;;7.04;100.00;98673.16;5090419;28;20463;-80
2021/10/01 03:44:20;;;;;;;6.13;1.73;;;6.00;99.90;;;7.09;100.00;98670.06;5080575;28;20519;-79
2021/10/01 03:46:49;;;;;;;2.80;1.73;;;6.10;99.90;;;6.99;100.00;98666.75;5082773;28;20468;-79
2021/10/01 03:49:18;;;;;;;5.17;2.63;;;5.90;99.90;;;6.91;100.00;98661.47;5085807;28;20951;-79
2021/10/01 03:51:48;;;;;;;3.03;1.40;;;5.90;99.90;;;6.90;100.00;98663.25;5085983;28;20490;-79
2021/10/01 03:54:16;;;;;;;1.93;1.37;;;5.80;99.90;;;6.85;100.00;98662.06;5085729;28;21014;-80
2021/10/01 03:56:45;;;;;;;4.60;1.73;;;5.80;99.90;;;6.89;100.00;98658.19;5090331;28;20443;-80
2021/10/01 03:59:13;;;;;;;1.57;1.33;;;5.90;99.90;;;6.86;100.00;98661.09;5090129;28;20491;-80
2021/10/01 04:01:42;;;;;;;5.20;1.60;;;5.80;99.90;;;6.75;100.00;98658.72;5090138;28;20455;-80
2021/10/01 04:04:10;;;;;;;1.40;1.30;;;5.70;99.90;;;6.80;100.00;98643.50;5093986;28;20619;-80
2021/10/01 04:06:39;;;;;;;3.33;1.27;;;5.70;99.90;;;6.88;100.00;98641.78;5089888;28;20486;-80
2021/10/01 04:09:09;;;;;;;3.00;1.67;;;5.90;99.90;;;6.90;100.00;98641.66;5088770;28;20462;-80
2021/10/01 04:11:39;;;;;;;3.13;1.37;;;5.90;99.90;;;6.91;100.00;98640.66;5087131;28;20807;-79
2021/10/01 04:14:08;;;;;;;4.80;1.53;;;5.90;99.90;;;6.90;100.00;98633.84;5088297;28;20519;-79
2021/10/01 04:16:37;;;;;;;3.23;1.53;;;5.90;99.90;;;6.79;100.00;98626.28;5081859;28;20491;-80
2021/10/01 04:19:08;;;;;;;4.40;1.50;;;5.80;99.90;;;6.80;100.00;98628.72;5088718;28;20739;-80
2021/10/01 04:21:37;;;;;;;2.90;1.33;;;5.70;99.90;;;6.89;100.00;98634.81;5085533;28;20451;-80
2021/10/01 04:24:06;;;;;;;2.90;1.60;;;5.90;99.90;;;6.87;100.00;98628.94;5088659;28;20467;-80
2021/10/01 04:26:36;;;;;;;3.57;1.23;;;5.80;99.90;;;6.77;100.00;98634.19;5089171;28;21114;-79
2021/10/01 04:29:04;;;;;;;2.87;1.57;;;5.80;99.90;;;6.70;100.00;98632.38;5090214;28;20496;-79
2021/10/01 04:31:33;;;;;;;1.70;1.30;;;5.70;99.90;;;6.68;100.00;98629.91;5090185;28;20450;-81
2021/10/01 04:34:03;;;;;;;2.27;1.43;;;5.70;99.90;;;6.75;100.00;98635.31;5091303;28;20516;-79
2021/10/01 04:36:33;;;;;;;1.90;1.47;;;5.80;99.90;;;6.69;100.00;98635.94;5088541;28;20455;-79
2021/10/01 04:39:02;;;;;;;1.80;1.60;;;5.70;99.90;;;6.68;100.00;98639.47;5085886;28;20487;-80
2021/10/01 04:41:30;;;;;;;4.47;1.43;;;5.60;99.90;;;6.68;100.00;98639.47;5091646;28;20521;-80
2021/10/01 04:44:00;;;;;;;7.67;1.73;;;5.70;99.90;;;6.59;100.00;98636.78;5091160;28;20482;-80
2021/10/01 04:46:29;;;;;;;3.07;1.70;;;5.50;99.90;;;6.53;100.00;98642.59;5087620;28;20493;-80
2021/10/01 04:48:57;;;;;;;2.87;1.67;;;5.50;99.90;;;6.53;100.00;98647.78;5089500;28;20439;-80
2021/10/01 04:51:26;;;;;;;3.43;1.80;;;5.40;99.90;;;6.52;100.00;98646.16;5090324;28;20476;-80
2021/10/01 04:53:55;;;;;;;3.00;1.80;;;5.40;99.90;;;6.52;100.00;98642.75;5090526;28;20450;-80
2021/10/01 04:56:23;;;;;;;2.10;1.50;;;5.50;99.90;;;6.50;100.00;98642.88;5090882;28;20451;-80
2021/10/01 04:58:52;;;;;;;3.57;1.80;;;5.50;99.90;;;6.43;100.00;98641.00;5090244;28;21100;-80
2021/10/01 05:01:22;;;;;;;2.47;1.67;;;5.40;99.90;;;6.44;100.00;98637.47;5090226;28;20852;-80
2021/10/01 05:03:51;;;;;;;6.73;1.53;;;5.40;99.90;;;6.49;100.00;98643.84;5090468;28;20451;-79
2021/10/01 05:06:19;;;;;;;7.03;2.33;;;5.40;99.90;;;6.59;100.00;98638.59;5083088;28;20761;-80
2021/10/01 05:08:48;;;;;;;3.20;1.60;;;5.60;99.90;;;6.50;100.00;98642.88;5090023;28;20485;-80
2021/10/01 05:11:16;;;;;;;1.60;1.43;;;5.50;99.90;;;6.41;100.00;98641.16;5090124;28;20455;-80
2021/10/01 05:13:45;;;;;;;3.10;1.63;;;5.40;99.90;;;6.33;100.00;98645.44;5089483;28;20459;-79
2021/10/01 05:16:13;;;;;;;1.60;1.40;;;5.30;99.90;;;6.19;100.00;98645.94;5085940;28;20463;-79
2021/10/01 05:18:43;;;;;;;9.70;2.00;;;5.10;99.90;;;6.14;100.00;98651.56;5085843;28;20521;-80
2021/10/01 05:21:12;;;;;;;3.20;1.60;;;5.10;99.90;;;6.24;100.00;98641.94;5089607;28;20504;-80
2021/10/01 05:23:40;;;;;;;5.73;1.47;;;5.20;99.90;;;6.28;100.00;98643.28;5089248;28;21561;-80
2021/10/01 05:26:09;;;;;;;3.53;1.43;;;5.30;99.90;;;6.28;100.00;98645.06;5089242;28;20517;-79
2021/10/01 05:28:38;;;;;;;3.27;1.50;;;5.30;99.90;;;6.17;100.00;98645.25;5089336;28;20927;-79
2021/10/01 05:31:06;;;;;;;2.27;1.90;;;5.10;99.90;;;6.08;100.00;98647.75;5089600;28;20539;-80
2021/10/01 05:33:35;;;;;;;2.30;1.63;;;5.00;99.90;;;6.11;100.00;98645.84;5089015;28;20442;-80
2021/10/01 05:36:06;;;;;;;2.00;1.70;;;5.10;99.90;;;6.12;100.00;98640.50;5088348;28;20438;-80
2021/10/01 05:38:35;;;;;;;1.63;1.43;;;5.10;99.90;;;6.15;100.00;98642.81;5087964;28;20798;-80
2021/10/01 05:41:03;;;;;;;3.87;1.80;;;5.10;99.90;;;6.15;100.00;98636.78;5089108;28;20992;-80
2021/10/01 05:43:32;;;;;;;4.50;1.93;;;5.10;99.90;;;6.09;100.00;98638.19;5089225;28;20453;-80
2021/10/01 05:46:00;;;;;;;2.50;1.77;;;5.10;99.90;;;5.98;100.00;98641.78;5089254;28;20450;-80
2021/10/01 05:48:32;;;;;;;1.80;1.50;;;4.90;99.90;;;6.04;100.00;98642.97;5086184;28;20669;-80
2021/10/01 05:51:05;;;;;;;6.40;1.90;;;5.00;99.90;;;6.08;100.00;98636.56;5089154;28;20484;-80
2021/10/01 05:53:48;;;;;;;2.33;1.63;;;5.10;99.90;;;6.07;100.00;98640.13;5089143;28;20448;-80
2021/10/01 05:56:18;;;;;;;3.57;2.07;;;5.00;99.90;;;6.03;100.00;98639.59;5089460;28;20452;-80
2021/10/01 05:58:46;;;;;;;3.80;1.83;;;5.10;99.90;;;6.04;100.00;98641.22;5085131;28;20536;-80
2021/10/01 06:01:15;;;;;;;1.53;1.43;;;5.00;99.90;;;6.10;100.00;98645.03;5087849;28;20499;-80
2021/10/01 06:03:43;;;;;;;3.50;2.20;;;5.00;99.90;;;6.13;100.00;98638.72;5092323;28;20457;-80
2021/10/01 06:06:12;;;;;;;1.60;1.50;;;5.10;99.90;;;6.12;100.00;98645.69;5089608;28;20572;-80
2021/10/01 06:08:42;;;;;;;3.13;1.77;;;5.10;99.90;;;6.12;100.00;98639.66;5088259;28;20441;-80
2021/10/01 06:11:10;;;;;;;3.10;1.33;;;5.10;99.90;;;6.03;100.00;98633.59;5088757;28;20448;-79
2021/10/01 06:13:39;;;;;;;1.73;1.63;;;5.00;99.90;;;6.01;100.00;98640.69;5088360;28;20451;-79
2021/10/01 06:16:08;;;;;;;3.97;1.70;;;5.00;99.90;;;5.98;100.00;98630.59;5085935;28;20789;-79
2021/10/01 06:18:37;;;;;;;3.80;1.83;;;5.00;99.90;;;5.98;100.00;98625.41;5089087;28;20585;-79
2021/10/01 06:21:05;;;;;;;2.03;1.57;;;5.00;99.90;;;5.98;100.00;98630.59;5080933;28;20493;-80
2021/10/01 06:23:35;;;;;;;1.83;1.60;;;5.00;99.90;;;6.06;100.00;98622.91;5088553;28;20826;-80
2021/10/01 06:26:06;;;;;;;4.10;1.60;;;5.10;99.90;;;6.11;100.00;98625.88;5088677;28;20481;-80
2021/10/01 06:28:35;;;;;;;3.10;1.83;;;5.20;99.90;;;6.10;100.00;98633.81;5088871;28;20611;-80
2021/10/01 06:31:04;;;;;;;4.00;1.77;;;5.10;99.90;;;6.03;100.00;98633.59;5088757;28;20453;-80
2021/10/01 06:33:32;;;;;;;1.93;1.53;;;5.00;99.90;;;6.03;100.00;98634.41;5088453;28;20950;-80
2021/10/01 06:36:01;;;;;;;2.00;1.53;;;5.00;99.90;;;6.04;100.00;98632.59;5084059;28;20798;-80
2021/10/01 06:38:31;;;;;;;1.90;1.57;;;5.00;99.90;;;6.09;100.00;98635.59;5091313;28;20940;-79
2021/10/01 06:41:00;;;;;;;5.90;1.80;;;5.10;99.90;;;6.05;100.00;98623.88;5092839;28;20852;-80
2021/10/01 06:43:31;;;;;;;6.47;2.50;;;5.10;99.90;;;6.10;100.00;98628.63;5092303;28;20437;-79
2021/10/01 06:46:00;;;;;;;5.10;2.50;;;5.10;99.90;;;6.09;100.00;98622.63;5092559;28;20516;-79
2021/10/01 06:48:39;;;;;;;5.07;2.30;;;5.10;99.90;;;6.11;100.00;98625.88;5092228;28;20767;-80
2021/10/01 08:20:23;;;;;;;8.40;1.93;;;6.90;99.90;;;7.80;100.00;98571.03;5086690;28;20495;-80
2021/10/01 08:22:54;;;;;;;5.27;2.50;;;7.00;99.90;;;7.85;100.00;98577.38;5085269;28;20956;-80
2021/10/01 08:25:22;;;;;;;3.87;2.50;;;7.00;99.90;;;7.93;100.00;98572.22;5090588;28;20447;-80
2021/10/01 08:27:51;;;;;;;2.53;1.93;;;7.10;99.90;;;8.01;100.00;98571.44;5090202;28;21003;-80
2021/10/01 08:30:20;;;;;;;3.10;2.00;;;7.20;99.90;;;8.10;100.00;98570.47;5090194;28;20517;-80
2021/10/01 08:32:50;;;;;;;4.17;2.27;;;7.30;99.90;;;8.19;100.00;98560.91;5089743;28;20451;-80
2021/10/01 08:35:21;;;;;;;3.20;2.20;;;7.40;99.90;;;8.28;100.00;98567.75;5090685;28;20489;-80
2021/10/01 08:37:50;;;;;;;4.60;2.40;;;7.50;99.90;;;8.34;100.00;98565.34;5090061;28;20443;-80
2021/10/01 08:40:22;;;;;;;6.13;2.30;;;7.60;99.90;;;8.42;100.00;98565.38;5083575;28;21026;-80
2021/10/01 08:42:53;;;;;;;6.40;2.10;;;7.60;99.90;;;8.49;100.00;98558.56;5082483;28;20439;-80
2021/10/01 08:45:25;;;;;;;7.33;2.43;;;7.70;99.90;;;8.55;100.00;98551.88;5090440;28;20446;-80
2021/10/01 08:47:57;;;;;;;4.20;2.10;;;7.80;99.90;;;8.63;100.00;98548.47;5090258;28;20834;-81
2021/10/01 08:50:29;;;;;;;3.53;2.00;;;7.90;99.90;;;8.70;100.00;98550.25;5089693;28;20948;-80
2021/10/01 08:53:00;;;;;;;3.57;1.77;;;7.90;99.90;;;8.76;100.00;98554.00;5090414;28;20497;-80
2021/10/01 08:55:30;;;;;;;8.20;1.63;;;8.00;99.90;;;8.82;100.00;98553.34;5089873;28;20454;-81
2021/10/01 08:57:59;;;;;;;4.10;1.70;;;8.10;99.90;;;8.89;100.00;98543.88;5088638;28;21003;-80
2021/10/01 09:00:27;;;;;;;6.33;1.40;;;8.10;99.90;;;8.93;100.00;98543.41;5088786;28;20495;-80
2021/10/01 09:02:56;;;;;;;1.80;1.30;;;8.20;99.90;;;9.00;100.00;98544.38;5089826;28;20451;-80
2021/10/01 09:05:25;;;;;;;3.67;1.23;;;8.30;99.90;;;9.09;100.00;98537.38;5089847;28;20447;-80
2021/10/01 09:07:53;;;;;;;3.47;1.30;;;8.40;99.90;;;9.17;100.00;98537.34;5090189;28;20451;-80
2021/10/01 09:10:22;;;;;;;3.60;1.50;;;8.50;99.90;;;9.23;100.00;98522.84;5087189;28;20448;-80
2021/10/01 09:12:54;;;;;;;3.53;1.40;;;8.60;99.90;;;9.31;100.00;98526.22;5082227;28;20440;-80
2021/10/01 09:15:23;;;;;;;3.53;1.40;;;8.70;99.90;;;9.38;100.00;98527.19;5088978;28;20451;-80
2021/10/01 09:17:52;;;;;;;5.77;1.67;;;8.80;99.90;;;9.45;100.00;98520.31;5085421;28;20514;-80
2021/10/01 09:20:25;;;;;;;7.30;1.77;;;8.90;99.90;;;9.50;100.00;98510.19;5085037;28;20486;-80
2021/10/01 09:23:14;;;;;;;3.43;1.77;;;8.90;99.90;;;9.59;100.00;98506.56;5085136;28;20448;-80
2021/10/01 09:25:43;;;;;;;2.23;1.50;;;9.00;99.90;;;9.66;100.00;98505.88;5089477;28;20479;-80
2021/10/01 09:28:13;;;;;;;1.97;1.07;;;9.10;99.90;;;9.73;100.00;98499.00;5089467;28;20447;-81
2021/10/01 09:30:47;;;;;;;2.47;1.40;;;9.10;99.90;;;9.78;100.00;98492.28;5089349;28;20515;-81
2021/10/01 09:33:18;;;;;;;1.40;1.20;;;9.20;99.90;;;9.86;100.00;98501.84;5089807;28;20537;-80
2021/10/01 09:35:48;;;;;;;3.77;1.50;;;9.30;99.90;;;9.94;100.00;98484.34;5089043;28;20956;-80
2021/10/01 09:38:20;;;;;;;1.90;1.20;;;9.30;99.90;;;10.08;100.00;98485.41;5089015;28;20489;-80
2021/10/01 09:41:14;;;;;;;4.73;1.33;;;9.50;99.90;;;10.17;100.00;98479.16;5089076;28;20495;-80
2021/10/01 09:43:44;;;;;;;2.37;0.97;;;9.60;99.90;;;10.23;100.00;98470.66;5088722;28;20940;-80
2021/10/01 09:46:14;;;;;;;3.50;1.40;;;9.70;99.90;;;10.29;100.00;98469.97;5076853;28;20575;-80
2021/10/01 09:48:43;;;;;;;1.20;1.10;;;9.70;99.90;;;10.36;100.00;98467.44;5088973;28;20834;-80
2021/10/01 09:51:17;;;;;;;1.30;1.17;;;9.80;99.90;;;10.41;100.00;98459.91;5087054;28;20535;-80
2021/10/01 09:53:48;;;;;;;5.63;1.40;;;9.80;99.90;;;10.46;100.00;98455.78;5086034;28;20446;-80
2021/10/01 09:56:29;;;;;;;2.57;1.20;;;9.90;99.90;;;10.54;100.00;98455.72;5087441;28;20834;-81
2021/10/01 09:59:12;;;;;;;1.20;1.00;;;10.00;99.90;;;10.60;100.00;98457.59;5088770;28;20960;-80
2021/10/01 10:02:10;;;;;;;1.20;1.00;;;10.10;99.90;;;10.70;100.00;98451.31;5088659;28;20491;-81
2021/10/01 10:04:45;;;;;;;3.17;1.23;;;10.20;99.90;;;10.85;100.00;98447.75;5089113;28;20487;-80
2021/10/01 10:07:19;;;;;;;1.67;0.93;;;10.40;99.90;;;10.96;100.00;98443.88;5089103;28;20442;-80
2021/10/01 10:09:51;;;;;;;3.47;1.27;;;10.50;99.90;;;11.04;100.00;98443.75;5088415;28;20497;-81
2021/10/01 10:12:23;;;;;;;1.40;1.10;;;10.60;99.90;;;11.15;100.00;98437.28;5088876;28;20444;-80
2021/10/01 10:14:56;;;;;;;1.47;1.07;;;10.60;99.90;;;11.21;100.00;98442.59;5092612;28;20899;-81
2021/10/01 10:17:28;;;;;;;1.93;1.00;;;10.70;99.90;;;11.27;100.00;98434.03;5089491;28;20487;-81
2021/10/01 10:19:59;;;;;;;3.57;1.27;;;10.70;99.90;;;11.51;100.00;98431.13;5092980;28;20443;-81
2021/10/01 10:22:30;;;;;;;6.17;1.30;;;11.00;99.90;;;11.68;100.00;98425.66;5092631;28;20524;-80
2021/10/01 10:24:59;;;;;;;6.20;1.30;;;11.10;99.90;;;11.76;100.00;98423.78;5086641;28;20451;-80
2021/10/01 10:27:29;;;;;;;2.20;1.30;;;11.20;99.90;;;11.81;100.00;98418.78;5092701;28;20863;-81
2021/10/01 10:30:00;;;;;;;4.33;1.27;;;11.30;99.90;;;11.85;100.00;98414.81;5092791;28;20830;-80
2021/10/01 10:32:32;;;;;;;1.20;1.00;;;11.30;99.90;;;12.03;99.13;98411.75;5092677;28;20455;-80
2021/10/01 10:35:06;;;;;;;1.90;1.47;;;11.50;99.90;;;12.09;98.16;98405.75;5092864;28;20512;-80
2021/10/01 10:37:41;;;;;;;4.70;1.40;;;11.60;99.90;;;12.33;90.70;98408.00;5092068;28;20778;-81
2021/10/01 10:40:12;;;;;;;3.60;1.40;;;11.80;99.90;;;12.37;93.34;98401.38;5086522;28;20935;-81
2021/10/01 10:42:44;;;;;;;5.13;1.20;;;11.90;99.90;;;12.37;96.49;98398.75;5091858;28;20447;-80
2021/10/01 10:45:20;;;;;;;5.47;1.67;;;11.90;99.90;;;12.40;98.54;98394.94;5086085;28;20484;-80
2021/10/01 10:48:00;;;;;;;4.20;1.00;;;11.90;99.90;;;12.41;99.66;98388.69;5086360;28;20447;-80
2021/10/01 10:50:50;;;;;;;5.57;1.97;;;11.90;99.90;;;12.46;96.33;98391.56;5092411;28;20907;-81
2021/10/01 10:53:28;;;;;;;2.43;1.47;;;12.00;99.90;;;12.56;92.45;98387.59;5088142;28;20451;-81
2021/10/01 10:56:05;;;;;;;2.00;1.33;;;12.10;99.90;;;12.58;91.81;98382.97;5086794;28;20447;-80
2021/10/01 10:58:55;;;;;;;2.10;1.10;;;12.10;99.90;;;12.69;83.51;98375.56;5090982;28;20478;-81
2021/10/01 11:01:39;;;;;;;2.40;1.77;;;12.20;99.90;;;12.73;85.60;98379.44;5085883;28;21068;-80
2021/10/01 11:04:37;;;;;;;3.70;1.13;;;12.30;99.90;;;12.81;83.26;98379.28;5086722;28;20504;-80
2021/10/01 11:07:09;;;;;;;2.13;1.10;;;12.30;99.90;;;12.86;85.53;98374.25;5090331;28;20755;-81
2021/10/01 11:09:39;;;;;;;1.40;1.17;;;12.40;99.90;;;12.92;83.22;98365.59;5091663;28;20508;-81
2021/10/01 11:12:32;;;;;;;1.77;1.03;;;12.40;99.90;;;13.02;77.46;98347.69;5091754;28;20453;-80
2021/10/01 11:15:20;;;;;;;5.50;1.30;;;12.50;99.10;;;13.05;80.30;98348.09;5074434;28;20460;-80
2021/10/01 11:18:18;;;;;;;1.87;1.07;;;12.60;99.90;;;13.07;83.14;98347.94;5087591;28;20532;-81
2021/10/01 11:20:50;;;;;;;2.00;1.27;;;12.60;99.90;;;13.09;82.75;98338.06;5090052;28;20959;-81
2021/10/01 11:23:21;;;;;;;1.60;1.17;;;12.70;99.90;;;13.16;81.29;98345.97;5091115;28;20455;-81
2021/10/01 11:25:52;;;;;;;4.00;1.23;;;12.70;99.90;;;13.21;81.97;98349.63;5090010;28;20436;-81
2021/10/01 11:28:32;;;;;;;3.50;1.40;;;12.80;99.90;;;13.28;81.43;98339.16;5091319;28;20448;-81
2021/10/01 11:31:03;;;;;;;2.13;0.93;;;12.90;99.90;;;13.37;78.76;98338.78;5091233;28;21072;-81
2021/10/01 11:33:33;;;;;;;1.33;1.00;;;13.00;99.90;;;13.47;79.41;98344.47;5091638;28;20443;-80
2021/10/01 11:36:03;;;;;;;2.13;1.10;;;13.10;99.90;;;13.64;74.69;98325.72;5091445;28;20952;-81
2021/10/01 11:38:33;;;;;;;7.53;1.23;;;13.10;99.30;;;13.72;74.23;98320.25;5091425;28;20512;-80
2021/10/01 11:41:12;;;;;;;2.20;1.33;;;13.20;99.20;;;13.79;75.68;98310.56;5091428;28;20447;-81
2021/10/01 11:43:51;;;;;;;1.43;1.20;;;13.30;99.80;;;13.92;74.50;98294.78;5091495;28;20447;-81
2021/10/01 11:46:28;;;;;;;2.90;1.27;;;13.40;99.40;;;13.97;77.03;98308.16;5088443;28;20935;-81
2021/10/01 11:49:02;;;;;;;2.03;1.30;;;13.50;99.90;;;13.98;78.98;98299.28;5090524;28;21033;-81
2021/10/01 11:51:32;;;;;;;2.40;1.10;;;13.50;99.90;;;14.00;79.25;98298.03;5091321;28;20575;-81
2021/10/01 11:54:16;;;;;;;3.07;1.10;;;13.50;99.90;;;14.03;79.51;98299.44;5091323;28;20447;-81
2021/10/01 11:56:57;;;;;;;3.23;1.37;;;13.50;99.90;;;14.06;79.85;98294.59;5091055;28;20451;-81
2021/10/01 11:59:47;;;;;;;1.50;1.10;;;13.60;99.90;;;14.11;79.06;98292.19;5090675;28;20955;-81
2021/10/01 12:02:37;;;;;;;2.00;1.30;;;13.60;99.90;;;14.21;77.92;98278.63;5086309;28;20893;-81
2021/10/01 12:05:30;;;;;;;1.50;1.10;;;13.70;99.90;;;14.26;78.82;98278.81;5089373;28;20875;-80
2021/10/01 12:08:02;;;;;;;1.03;0.90;;;13.80;99.90;;;14.47;70.59;98275.94;5085034;28;20455;-81
2021/10/01 12:10:35;;;;;;;3.27;1.30;;;13.90;98.50;;;14.59;70.06;98286.66;5090581;28;20814;-81
2021/10/01 12:13:26;;;;;;;2.50;1.27;;;14.10;98.60;;;14.74;70.25;98289.06;5090585;28;20469;-81
2021/10/01 12:16:00;;;;;;;4.73;1.20;;;14.10;98.70;;;14.75;69.52;98288.06;5088887;28;20447;-81